sensor_id;sensor_type;location;lat;lon;timestamp;pressure;altitude;pressure_sealevel;temperature;humidity
56334;BME280;42240;53.626;55.886;2024-03-23T00:54:58;78077.69;;;-145.10;65.66
56334;BME280;42240;53.626;55.886;2024-03-23T00:56:31;78091.53;;;-145.10;65.81
56334;BME280;42240;53.626;55.886;2024-03-23T00:58:03;78071.75;;;-145.10;65.14
56334;BME280;42240;53.626;55.886;2024-03-23T00:59:36;78042.09;;;-145.10;63.83
56334;BME280;42240;53.626;55.886;2024-03-23T01:01:08;78085.59;;;-145.10;64.36
56334;BME280;42240;53.626;55.886;2024-03-23T01:02:40;78085.59;;;-145.10;65.09
56334;BME280;42240;53.626;55.886;2024-03-23T01:04:18;78081.66;;;-145.10;64.51
56334;BME280;42240;53.626;55.886;2024-03-23T01:05:51;78121.22;;;-145.10;64.71
56334;BME280;42240;53.626;55.886;2024-03-23T01:07:28;78133.09;;;-145.10;65.34
56334;BME280;42240;53.626;55.886;2024-03-23T01:09:00;78115.28;;;-145.10;65.40
56334;BME280;42240;53.626;55.886;2024-03-23T01:10:33;78032.19;;;-145.10;65.12
56334;BME280;42240;53.626;55.886;2024-03-23T01:12:05;78129.13;;;-145.10;65.08
56334;BME280;42240;53.626;55.886;2024-03-23T01:13:37;78154.84;;;-145.10;65.93
56334;BME280;42240;53.626;55.886;2024-03-23T01:15:12;78148.91;;;-145.10;66.84
56334;BME280;42240;53.626;55.886;2024-03-23T01:16:45;78174.63;;;-145.10;67.97
56334;BME280;42240;53.626;55.886;2024-03-23T01:18:24;78224.06;;;-145.10;68.49
56334;BME280;42240;53.626;55.886;2024-03-23T01:19:58;78160.78;;;-145.10;69.05
56334;BME280;42240;53.626;55.886;2024-03-23T01:21:33;78137.03;;;-145.10;68.67
56334;BME280;42240;53.626;55.886;2024-03-23T01:23:05;78176.59;;;-145.10;68.61
56334;BME280;42240;53.626;55.886;2024-03-23T01:24:38;78160.78;;;-145.10;67.95
56334;BME280;42240;53.626;55.886;2024-03-23T01:26:10;78204.28;;;-145.10;68.72
56334;BME280;42240;53.626;55.886;2024-03-23T01:27:46;78202.31;;;-145.10;69.04
56334;BME280;42240;53.626;55.886;2024-03-23T01:29:19;78220.13;;;-145.10;69.36
56334;BME280;42240;53.626;55.886;2024-03-23T01:30:52;78243.84;;;-145.10;69.60
56334;BME280;42240;53.626;55.886;2024-03-23T01:32:25;78202.31;;;-145.10;69.52
56334;BME280;42240;53.626;55.886;2024-03-23T01:33:58;78206.28;;;-145.10;68.70
56334;BME280;42240;53.626;55.886;2024-03-23T01:35:30;78212.22;;;-145.10;68.91
56334;BME280;42240;53.626;55.886;2024-03-23T01:37:05;78144.94;;;-145.10;68.30
56334;BME280;42240;53.626;55.886;2024-03-23T01:38:43;78178.56;;;-145.10;67.68
56334;BME280;42240;53.626;55.886;2024-03-23T01:40:18;78206.28;;;-145.10;67.75
56334;BME280;42240;53.626;55.886;2024-03-23T01:41:50;78196.38;;;-145.10;67.36
56334;BME280;42240;53.626;55.886;2024-03-23T01:43:28;78196.38;;;-145.10;67.63
56334;BME280;42240;53.626;55.886;2024-03-23T01:45:00;78180.56;;;-145.10;67.23
56334;BME280;42240;53.626;55.886;2024-03-23T01:46:33;78186.50;;;-145.10;66.71
56334;BME280;42240;53.626;55.886;2024-03-23T01:48:05;78194.41;;;-145.10;66.69
56334;BME280;42240;53.626;55.886;2024-03-23T01:49:38;78182.53;;;-145.10;65.54
56334;BME280;42240;53.626;55.886;2024-03-23T01:51:12;78160.78;;;-145.10;64.90
56334;BME280;42240;53.626;55.886;2024-03-23T01:52:54;78123.19;;;-145.10;64.30
56334;BME280;42240;53.626;55.886;2024-03-23T01:54:30;78119.22;;;-145.10;63.38
56334;BME280;42240;53.626;55.886;2024-03-23T01:56:05;78135.06;;;-145.10;63.27
56334;BME280;42240;53.626;55.886;2024-03-23T01:57:41;78184.50;;;-145.10;63.29
56334;BME280;42240;53.626;55.886;2024-03-23T01:59:16;78208.25;;;-145.10;63.99
56334;BME280;42240;53.626;55.886;2024-03-23T02:00:51;78208.25;;;-145.10;64.76
56334;BME280;42240;53.626;55.886;2024-03-23T02:02:23;78154.84;;;-145.10;64.16
56334;BME280;42240;53.626;55.886;2024-03-23T02:03:56;78210.22;;;-145.10;63.88
56334;BME280;42240;53.626;55.886;2024-03-23T02:05:30;78239.91;;;-145.10;64.47
56334;BME280;42240;53.626;55.886;2024-03-23T02:07:02;78239.91;;;-145.10;65.11
56334;BME280;42240;53.626;55.886;2024-03-23T02:08:39;78194.41;;;-145.10;64.85
56334;BME280;42240;53.626;55.886;2024-03-23T02:10:12;78226.06;;;-145.10;64.13
56334;BME280;42240;53.626;55.886;2024-03-23T02:11:49;78226.06;;;-145.10;64.31
56334;BME280;42240;53.626;55.886;2024-03-23T02:13:22;78261.66;;;-145.10;63.85
56334;BME280;42240;53.626;55.886;2024-03-23T02:14:54;78257.72;;;-145.10;64.49
56334;BME280;42240;53.626;55.886;2024-03-23T02:16:25;78257.72;;;-145.10;64.28
56334;BME280;42240;53.626;55.886;2024-03-23T02:17:57;78279.47;;;-145.10;64.32
56334;BME280;42240;53.626;55.886;2024-03-23T02:19:31;78295.28;;;-145.10;64.95
56334;BME280;42240;53.626;55.886;2024-03-23T02:21:03;78303.22;;;-145.10;65.88
56334;BME280;42240;53.626;55.886;2024-03-23T02:22:39;78313.09;;;-145.10;66.57
56334;BME280;42240;53.626;55.886;2024-03-23T02:24:12;78368.50;;;-145.10;67.67
56334;BME280;42240;53.626;55.886;2024-03-23T02:25:44;78356.63;;;-145.10;68.83
56334;BME280;42240;53.626;55.886;2024-03-23T02:27:24;78370.47;;;-145.10;69.50
56334;BME280;42240;53.626;55.886;2024-03-23T02:28:57;78380.34;;;-145.10;69.84
56334;BME280;42240;53.626;55.886;2024-03-23T02:30:32;78384.31;;;-145.10;70.29
56334;BME280;42240;53.626;55.886;2024-03-23T02:32:05;78360.56;;;-145.10;70.09
56334;BME280;42240;53.626;55.886;2024-03-23T02:33:37;78317.06;;;-145.10;70.08
56334;BME280;42240;53.626;55.886;2024-03-23T02:35:09;78332.88;;;-145.10;69.07
56334;BME280;42240;53.626;55.886;2024-03-23T02:36:45;78319.03;;;-145.10;68.62
56334;BME280;42240;53.626;55.886;2024-03-23T02:38:21;78305.19;;;-145.10;68.08
56334;BME280;42240;53.626;55.886;2024-03-23T02:39:53;78303.22;;;-145.10;68.23
56334;BME280;42240;53.626;55.886;2024-03-23T02:41:30;78309.13;;;-145.10;68.72
56334;BME280;42240;53.626;55.886;2024-03-23T02:43:03;78303.22;;;-145.10;69.21
56334;BME280;42240;53.626;55.886;2024-03-23T02:44:44;78182.53;;;-145.10;67.09
56334;BME280;42240;53.626;55.886;2024-03-23T02:46:17;78034.19;;;-145.10;61.71
56334;BME280;42240;53.626;55.886;2024-03-23T02:47:53;77871.97;;;-145.10;57.68
56334;BME280;42240;53.626;55.886;2024-03-23T02:49:26;77707.81;;;-145.10;54.47
56334;BME280;42240;53.626;55.886;2024-03-23T02:50:59;77620.78;;;-145.10;51.73
56334;BME280;42240;53.626;55.886;2024-03-23T02:52:31;77632.63;;;-145.10;50.54
56334;BME280;42240;53.626;55.886;2024-03-23T02:54:03;77569.34;;;-145.10;48.44
56334;BME280;42240;53.626;55.886;2024-03-23T02:55:44;77490.22;;;-145.10;48.05
56334;BME280;42240;53.626;55.886;2024-03-23T02:57:16;77446.72;;;-145.10;46.53
56334;BME280;42240;53.626;55.886;2024-03-23T02:58:51;77310.25;;;-145.10;46.17
56334;BME280;42240;53.626;55.886;2024-03-23T03:00:24;77252.91;;;-145.10;44.24
56334;BME280;42240;53.626;55.886;2024-03-23T03:02:06;77118.41;;;-145.10;43.49
56334;BME280;42240;53.626;55.886;2024-03-23T03:03:38;77248.94;;;-145.10;42.23
56334;BME280;42240;53.626;55.886;2024-03-23T03:05:10;77292.44;;;-145.10;43.24
56334;BME280;42240;53.626;55.886;2024-03-23T03:06:47;77183.69;;;-145.10;42.73
56334;BME280;42240;53.626;55.886;2024-03-23T03:08:29;76995.81;;;-145.10;41.72
56334;BME280;42240;53.626;55.886;2024-03-23T03:10:04;76932.53;;;-145.10;40.28
56334;BME280;42240;53.626;55.886;2024-03-23T03:11:38;76896.94;;;-145.10;39.28
56334;BME280;42240;53.626;55.886;2024-03-23T03:13:11;76904.84;;;-145.10;39.02
56334;BME280;42240;53.626;55.886;2024-03-23T03:14:43;76924.59;;;-145.10;39.27
56334;BME280;42240;53.626;55.886;2024-03-23T03:16:15;76782.22;;;-145.10;39.02
56334;BME280;42240;53.626;55.886;2024-03-23T03:17:48;76756.53;;;-145.10;37.86
56334;BME280;42240;53.626;55.886;2024-03-23T03:19:21;76667.53;;;-145.10;37.32
56334;BME280;42240;53.626;55.886;2024-03-23T03:20:54;76661.59;;;-145.10;37.13
56334;BME280;42240;53.626;55.886;2024-03-23T03:22:26;76742.69;;;-145.10;36.36
56334;BME280;42240;53.626;55.886;2024-03-23T03:23:58;76786.19;;;-145.10;36.82
56334;BME280;42240;53.626;55.886;2024-03-23T03:25:30;76758.50;;;-145.10;36.93
56334;BME280;42240;53.626;55.886;2024-03-23T03:27:02;76740.69;;;-145.10;36.60
56334;BME280;42240;53.626;55.886;2024-03-23T03:28:36;76738.72;;;-145.10;36.77
56334;BME280;42240;53.626;55.886;2024-03-23T03:30:08;76940.44;;;-145.10;36.65
56334;BME280;42240;53.626;55.886;2024-03-23T03:31:40;76908.78;;;-145.10;36.99
56334;BME280;42240;53.626;55.886;2024-03-23T03:33:13;76802.00;;;-145.10;36.49
56334;BME280;42240;53.626;55.886;2024-03-23T03:34:46;76790.13;;;-145.10;36.23
56334;BME280;42240;53.626;55.886;2024-03-23T03:36:19;76786.19;;;-145.10;36.46
56334;BME280;42240;53.626;55.886;2024-03-23T03:37:52;76659.63;;;-145.10;35.85
56334;BME280;42240;53.626;55.886;2024-03-23T03:39:32;76671.50;;;-145.10;35.57
56334;BME280;42240;53.626;55.886;2024-03-23T03:41:04;76578.56;;;-145.10;34.97
56334;BME280;42240;53.626;55.886;2024-03-23T03:42:37;76540.97;;;-145.10;34.70
56334;BME280;42240;53.626;55.886;2024-03-23T03:44:09;76552.84;;;-145.10;34.31
56334;BME280;42240;53.626;55.886;2024-03-23T03:45:41;76523.19;;;-145.10;34.26
56334;BME280;42240;53.626;55.886;2024-03-23T03:47:13;76410.47;;;-145.10;34.24
56334;BME280;42240;53.626;55.886;2024-03-23T03:48:54;76359.06;;;-145.10;33.38
56334;BME280;42240;53.626;55.886;2024-03-23T03:50:26;76406.53;;;-145.10;33.65
56334;BME280;42240;53.626;55.886;2024-03-23T03:51:58;76416.41;;;-145.10;33.13
56334;BME280;42240;53.626;55.886;2024-03-23T03:53:33;76394.66;;;-145.10;33.07
56334;BME280;42240;53.626;55.886;2024-03-23T03:55:14;76598.31;;;-145.10;33.07
56334;BME280;42240;53.626;55.886;2024-03-23T03:56:49;76643.81;;;-145.10;33.46
56334;BME280;42240;53.626;55.886;2024-03-23T03:58:22;76507.38;;;-145.10;33.31
56334;BME280;42240;53.626;55.886;2024-03-23T03:59:55;76535.06;;;-145.10;33.10
56334;BME280;42240;53.626;55.886;2024-03-23T04:01:27;76511.31;;;-145.10;32.12
56334;BME280;42240;53.626;55.886;2024-03-23T04:02:59;76531.09;;;-145.10;32.60
56334;BME280;42240;53.626;55.886;2024-03-23T04:04:31;76453.97;;;-145.10;32.39
56334;BME280;42240;53.626;55.886;2024-03-23T04:06:06;76533.06;;;-145.10;32.21
56334;BME280;42240;53.626;55.886;2024-03-23T04:07:38;76473.75;;;-145.10;32.15
56334;BME280;42240;53.626;55.886;2024-03-23T04:09:14;76432.22;;;-145.10;32.16
56334;BME280;42240;53.626;55.886;2024-03-23T04:10:46;76477.72;;;-145.10;32.24
56334;BME280;42240;53.626;55.886;2024-03-23T04:12:19;76489.56;;;-145.10;32.02
56334;BME280;42240;53.626;55.886;2024-03-23T04:14:03;76438.16;;;-145.10;31.88
56334;BME280;42240;53.626;55.886;2024-03-23T04:15:35;76546.91;;;-145.10;31.96
56334;BME280;42240;53.626;55.886;2024-03-23T04:17:11;76604.25;;;-145.10;32.11
56334;BME280;42240;53.626;55.886;2024-03-23T04:18:49;76539.00;;;-145.10;32.61
56334;BME280;42240;53.626;55.886;2024-03-23T04:20:28;76673.47;;;-145.10;32.55
56334;BME280;42240;53.626;55.886;2024-03-23T04:22:00;76614.16;;;-145.10;32.83
56334;BME280;42240;53.626;55.886;2024-03-23T04:23:32;76473.75;;;-145.10;32.45
56334;BME280;42240;53.626;55.886;2024-03-23T04:25:07;76578.56;;;-145.10;32.48
56334;BME280;42240;53.626;55.886;2024-03-23T04:26:43;76606.22;;;-145.10;32.71
56334;BME280;42240;53.626;55.886;2024-03-23T04:28:16;76477.72;;;-145.10;32.68
56334;BME280;42240;53.626;55.886;2024-03-23T04:29:54;76450.03;;;-145.10;32.03
56334;BME280;42240;53.626;55.886;2024-03-23T04:31:26;76455.97;;;-145.10;32.15
56334;BME280;42240;53.626;55.886;2024-03-23T04:32:58;76297.78;;;-145.10;31.88
56334;BME280;42240;53.626;55.886;2024-03-23T04:34:30;76185.06;;;-145.10;31.52
56334;BME280;42240;53.626;55.886;2024-03-23T04:36:07;76153.44;;;-145.10;30.80
56334;BME280;42240;53.626;55.886;2024-03-23T04:37:41;76222.63;;;-145.10;31.05
56334;BME280;42240;53.626;55.886;2024-03-23T04:39:16;76266.13;;;-145.10;31.04
56334;BME280;42240;53.626;55.886;2024-03-23T04:41:01;76297.78;;;-145.10;31.18
56334;BME280;42240;53.626;55.886;2024-03-23T04:42:35;76299.75;;;-145.10;31.11
56334;BME280;42240;53.626;55.886;2024-03-23T04:44:07;76208.78;;;-145.10;31.01
56334;BME280;42240;53.626;55.886;2024-03-23T04:45:39;76224.63;;;-145.10;30.62
56334;BME280;42240;53.626;55.886;2024-03-23T04:47:11;76268.13;;;-145.10;30.77
56334;BME280;42240;53.626;55.886;2024-03-23T04:48:43;76353.13;;;-145.10;30.93
56334;BME280;42240;53.626;55.886;2024-03-23T04:50:16;76291.84;;;-145.10;30.58
56334;BME280;42240;53.626;55.886;2024-03-23T04:51:50;76214.72;;;-145.10;30.44
56334;BME280;42240;53.626;55.886;2024-03-23T04:53:23;76145.53;;;-145.10;30.38
56334;BME280;42240;53.626;55.886;2024-03-23T04:55:00;76125.75;;;-145.10;30.75
56334;BME280;42240;53.626;55.886;2024-03-23T04:56:31;75999.22;;;-145.10;30.04
56334;BME280;42240;53.626;55.886;2024-03-23T04:58:04;76161.34;;;-145.10;30.00
56334;BME280;42240;53.626;55.886;2024-03-23T04:59:36;76163.31;;;-145.10;30.10
56334;BME280;42240;53.626;55.886;2024-03-23T05:01:08;76266.13;;;-145.10;30.42
56334;BME280;42240;53.626;55.886;2024-03-23T05:02:43;76135.63;;;-145.10;30.51
56334;BME280;42240;53.626;55.886;2024-03-23T05:04:16;76149.47;;;-145.10;30.02
56334;BME280;42240;53.626;55.886;2024-03-23T05:05:48;76013.06;;;-145.10;30.79
56334;BME280;42240;53.626;55.886;2024-03-23T05:07:20;76030.84;;;-145.10;30.36
56334;BME280;42240;53.626;55.886;2024-03-23T05:08:55;75967.59;;;-145.10;30.70
56334;BME280;42240;53.626;55.886;2024-03-23T05:10:28;76054.56;;;-145.10;29.72
56334;BME280;42240;53.626;55.886;2024-03-23T05:12:01;75949.78;;;-145.10;29.67
56334;BME280;42240;53.626;55.886;2024-03-23T05:13:33;76040.75;;;-145.10;29.50
56334;BME280;42240;53.626;55.886;2024-03-23T05:15:06;75955.72;;;-145.10;29.79
56334;BME280;42240;53.626;55.886;2024-03-23T05:16:42;75886.53;;;-145.10;29.41
56334;BME280;42240;53.626;55.886;2024-03-23T05:18:14;76005.16;;;-145.10;29.14
56334;BME280;42240;53.626;55.886;2024-03-23T05:19:49;76105.97;;;-145.10;29.62
56334;BME280;42240;53.626;55.886;2024-03-23T05:21:21;76058.53;;;-145.10;30.14
56334;BME280;42240;53.626;55.886;2024-03-23T05:22:54;75991.31;;;-145.10;29.92
56334;BME280;42240;53.626;55.886;2024-03-23T05:24:27;76117.84;;;-145.10;29.70
56334;BME280;42240;53.626;55.886;2024-03-23T05:26:00;75959.69;;;-145.10;29.53
56334;BME280;42240;53.626;55.886;2024-03-23T05:27:36;75928.03;;;-145.10;28.94
56334;BME280;42240;53.626;55.886;2024-03-23T05:29:12;75801.50;;;-145.10;28.95
56334;BME280;42240;53.626;55.886;2024-03-23T05:30:54;75856.88;;;-145.10;28.86
56334;BME280;42240;53.626;55.886;2024-03-23T05:32:27;75941.88;;;-145.10;29.26
56334;BME280;42240;53.626;55.886;2024-03-23T05:34:02;75951.78;;;-145.10;29.08
56334;BME280;42240;53.626;55.886;2024-03-23T05:35:34;75829.19;;;-145.10;29.08
56334;BME280;42240;53.626;55.886;2024-03-23T05:37:06;75848.97;;;-145.10;29.10
56334;BME280;42240;53.626;55.886;2024-03-23T05:38:38;75991.31;;;-145.10;29.01
56334;BME280;42240;53.626;55.886;2024-03-23T05:40:11;75910.25;;;-145.10;29.61
56334;BME280;42240;53.626;55.886;2024-03-23T05:41:44;75878.63;;;-145.10;29.73
56334;BME280;42240;53.626;55.886;2024-03-23T05:43:16;75783.72;;;-145.10;28.75
56334;BME280;42240;53.626;55.886;2024-03-23T05:44:48;75945.84;;;-145.10;29.31
56334;BME280;42240;53.626;55.886;2024-03-23T05:46:20;75771.84;;;-145.10;28.99
56334;BME280;42240;53.626;55.886;2024-03-23T05:47:55;75779.75;;;-145.10;28.78
56334;BME280;42240;53.626;55.886;2024-03-23T05:49:28;75722.44;;;-145.10;29.29
56334;BME280;42240;53.626;55.886;2024-03-23T05:51:01;75671.03;;;-145.10;28.47
56334;BME280;42240;53.626;55.886;2024-03-23T05:52:33;75667.06;;;-145.10;28.62
56334;BME280;42240;53.626;55.886;2024-03-23T05:54:05;75641.38;;;-145.10;28.71
56334;BME280;42240;53.626;55.886;2024-03-23T05:55:37;75647.31;;;-145.10;28.30
56334;BME280;42240;53.626;55.886;2024-03-23T05:57:10;75839.06;;;-145.10;28.26
56334;BME280;42240;53.626;55.886;2024-03-23T05:58:44;75710.56;;;-145.10;28.62
56334;BME280;42240;53.626;55.886;2024-03-23T06:00:16;75661.16;;;-145.10;28.50
56334;BME280;42240;53.626;55.886;2024-03-23T06:01:48;75856.88;;;-145.10;28.78
56334;BME280;42240;53.626;55.886;2024-03-23T06:03:20;75773.84;;;-145.10;28.92
56334;BME280;42240;53.626;55.886;2024-03-23T06:04:52;75852.91;;;-145.10;28.61
56334;BME280;42240;53.626;55.886;2024-03-23T06:06:25;75803.50;;;-145.10;29.04
56334;BME280;42240;53.626;55.886;2024-03-23T06:07:57;75607.78;;;-145.10;28.66
56334;BME280;42240;53.626;55.886;2024-03-23T06:09:30;75576.13;;;-145.10;29.22
56334;BME280;42240;53.626;55.886;2024-03-23T06:11:03;75607.78;;;-145.10;28.32
56334;BME280;42240;53.626;55.886;2024-03-23T06:12:38;75625.56;;;-145.10;28.14
56334;BME280;42240;53.626;55.886;2024-03-23T06:14:10;75643.34;;;-145.10;28.54
56334;BME280;42240;53.626;55.886;2024-03-23T06:15:45;75803.50;;;-145.10;28.47
56334;BME280;42240;53.626;55.886;2024-03-23T06:17:18;75884.56;;;-145.10;28.58
56334;BME280;42240;53.626;55.886;2024-03-23T06:18:51;75981.44;;;-145.10;29.20
56334;BME280;42240;53.626;55.886;2024-03-23T06:20:23;75813.38;;;-145.10;29.07
56334;BME280;42240;53.626;55.886;2024-03-23T06:21:55;75801.50;;;-145.10;28.62
56334;BME280;42240;53.626;55.886;2024-03-23T06:23:27;75963.63;;;-145.10;29.16
56334;BME280;42240;53.626;55.886;2024-03-23T06:24:59;75758.03;;;-145.10;28.97
56334;BME280;42240;53.626;55.886;2024-03-23T06:26:31;75845.00;;;-145.10;29.03
56334;BME280;42240;53.626;55.886;2024-03-23T06:28:03;75852.91;;;-145.10;29.43
56334;BME280;42240;53.626;55.886;2024-03-23T06:29:36;76019.00;;;-145.10;29.53
56334;BME280;42240;53.626;55.886;2024-03-23T06:31:11;75963.63;;;-145.10;29.46
56334;BME280;42240;53.626;55.886;2024-03-23T06:32:44;75951.78;;;-145.10;30.57
56334;BME280;42240;53.626;55.886;2024-03-23T06:34:16;75912.22;;;-145.10;29.89
56334;BME280;42240;53.626;55.886;2024-03-23T06:35:51;75916.19;;;-145.10;29.64
56334;BME280;42240;53.626;55.886;2024-03-23T06:37:24;75973.50;;;-145.10;30.76
56334;BME280;42240;53.626;55.886;2024-03-23T06:38:59;76194.97;;;-145.10;30.24
56334;BME280;42240;53.626;55.886;2024-03-23T06:40:32;76054.56;;;-145.10;31.12
56334;BME280;42240;53.626;55.886;2024-03-23T06:42:06;76228.56;;;-145.10;30.86
56334;BME280;42240;53.626;55.886;2024-03-23T06:43:49;76200.88;;;-145.10;30.98
56334;BME280;42240;53.626;55.886;2024-03-23T06:45:30;76319.53;;;-145.10;31.38
56334;BME280;42240;53.626;55.886;2024-03-23T06:47:05;76333.38;;;-145.10;31.97
56334;BME280;42240;53.626;55.886;2024-03-23T06:48:38;76246.38;;;-145.10;31.55
56334;BME280;42240;53.626;55.886;2024-03-23T06:50:13;76307.66;;;-145.10;31.73
56334;BME280;42240;53.626;55.886;2024-03-23T06:52:06;76230.53;;;-145.10;31.88
56334;BME280;42240;53.626;55.886;2024-03-23T06:53:39;76240.44;;;-145.10;31.83
56334;BME280;42240;53.626;55.886;2024-03-23T06:55:11;76299.75;;;-145.10;32.18
56334;BME280;42240;53.626;55.886;2024-03-23T06:57:01;76305.69;;;-145.10;32.49
56334;BME280;42240;53.626;55.886;2024-03-23T06:58:40;76414.44;;;-145.10;32.84
56334;BME280;42240;53.626;55.886;2024-03-23T07:00:16;76386.75;;;-145.10;32.86
56334;BME280;42240;53.626;55.886;2024-03-23T07:01:48;76418.38;;;-145.10;32.93
56334;BME280;42240;53.626;55.886;2024-03-23T07:03:20;76461.88;;;-145.10;33.15
56334;BME280;42240;53.626;55.886;2024-03-23T07:04:53;76647.75;;;-145.10;33.70
56334;BME280;42240;53.626;55.886;2024-03-23T07:06:26;76463.88;;;-145.10;34.02
56334;BME280;42240;53.626;55.886;2024-03-23T07:07:58;76418.38;;;-145.10;34.36
56334;BME280;42240;53.626;55.886;2024-03-23T07:09:31;76331.38;;;-145.10;33.76
56334;BME280;42240;53.626;55.886;2024-03-23T07:11:07;76384.78;;;-145.10;33.50
56334;BME280;42240;53.626;55.886;2024-03-23T07:12:39;76295.78;;;-145.10;34.26
56334;BME280;42240;53.626;55.886;2024-03-23T07:14:11;76307.66;;;-145.10;33.95
56334;BME280;42240;53.626;55.886;2024-03-23T07:15:44;76349.19;;;-145.10;33.28
56334;BME280;42240;53.626;55.886;2024-03-23T07:17:23;76311.63;;;-145.10;33.68
56334;BME280;42240;53.626;55.886;2024-03-23T07:18:55;76398.63;;;-145.10;33.83
56334;BME280;42240;53.626;55.886;2024-03-23T07:20:27;76311.63;;;-145.10;34.37
56334;BME280;42240;53.626;55.886;2024-03-23T07:22:02;76361.03;;;-145.10;34.71
56334;BME280;42240;53.626;55.886;2024-03-23T07:23:35;76301.72;;;-145.10;35.07
56334;BME280;42240;53.626;55.886;2024-03-23T07:25:07;76446.06;;;-145.10;34.29
56334;BME280;42240;53.626;55.886;2024-03-23T07:26:39;76351.16;;;-145.10;34.56
56334;BME280;42240;53.626;55.886;2024-03-23T07:28:12;76473.75;;;-145.10;34.41
56334;BME280;42240;53.626;55.886;2024-03-23T07:29:45;76469.78;;;-145.10;35.33
56334;BME280;42240;53.626;55.886;2024-03-23T07:31:17;76339.28;;;-145.10;34.65
56334;BME280;42240;53.626;55.886;2024-03-23T07:32:49;76378.84;;;-145.10;35.03
56334;BME280;42240;53.626;55.886;2024-03-23T07:34:21;76325.44;;;-145.10;35.19
56334;BME280;42240;53.626;55.886;2024-03-23T07:36:00;76232.53;;;-145.10;34.50
56334;BME280;42240;53.626;55.886;2024-03-23T07:37:32;76268.13;;;-145.10;35.16
56334;BME280;42240;53.626;55.886;2024-03-23T07:39:05;76278.00;;;-145.10;34.17
56334;BME280;42240;53.626;55.886;2024-03-23T07:40:37;76361.03;;;-145.10;34.44
56334;BME280;42240;53.626;55.886;2024-03-23T07:42:09;76313.59;;;-145.10;35.49
56334;BME280;42240;53.626;55.886;2024-03-23T07:43:41;76386.75;;;-145.10;35.45
56334;BME280;42240;53.626;55.886;2024-03-23T07:45:16;76323.47;;;-145.10;35.25
56334;BME280;42240;53.626;55.886;2024-03-23T07:46:48;76295.78;;;-145.10;35.01
56334;BME280;42240;53.626;55.886;2024-03-23T07:48:21;76291.84;;;-145.10;35.06
56334;BME280;42240;53.626;55.886;2024-03-23T07:49:56;76343.25;;;-145.10;35.25
56334;BME280;42240;53.626;55.886;2024-03-23T07:51:32;76307.66;;;-145.10;35.64
56334;BME280;42240;53.626;55.886;2024-03-23T07:53:05;76268.13;;;-145.10;35.76
56334;BME280;42240;53.626;55.886;2024-03-23T07:54:37;76234.50;;;-145.10;35.28
56334;BME280;42240;53.626;55.886;2024-03-23T07:56:10;76295.78;;;-145.10;34.65
56334;BME280;42240;53.626;55.886;2024-03-23T07:57:46;76204.84;;;-145.10;34.55
56334;BME280;42240;53.626;55.886;2024-03-23T07:59:22;76212.75;;;-145.10;34.42
56334;BME280;42240;53.626;55.886;2024-03-23T08:00:54;76252.28;;;-145.10;34.99
56334;BME280;42240;53.626;55.886;2024-03-23T08:02:29;76157.38;;;-145.10;35.88
56334;BME280;42240;53.626;55.886;2024-03-23T08:04:02;76113.91;;;-145.10;35.54
56334;BME280;42240;53.626;55.886;2024-03-23T08:05:34;76133.66;;;-145.10;34.69
56334;BME280;42240;53.626;55.886;2024-03-23T08:07:06;76157.38;;;-145.10;34.73
56334;BME280;42240;53.626;55.886;2024-03-23T08:08:43;76129.72;;;-145.10;35.30
56334;BME280;42240;53.626;55.886;2024-03-23T08:10:16;76185.06;;;-145.10;35.03
56334;BME280;42240;53.626;55.886;2024-03-23T08:11:53;76143.56;;;-145.10;35.54
56334;BME280;42240;53.626;55.886;2024-03-23T08:13:26;76159.38;;;-145.10;35.28
56334;BME280;42240;53.626;55.886;2024-03-23T08:14:58;76082.25;;;-145.10;35.50
56334;BME280;42240;53.626;55.886;2024-03-23T08:16:34;76066.44;;;-145.10;35.33
56334;BME280;42240;53.626;55.886;2024-03-23T08:18:06;76026.91;;;-145.10;35.66
56334;BME280;42240;53.626;55.886;2024-03-23T08:19:37;76036.78;;;-145.10;35.60
56334;BME280;42240;53.626;55.886;2024-03-23T08:21:09;76026.91;;;-145.10;36.02
56334;BME280;42240;53.626;55.886;2024-03-23T08:22:41;75955.72;;;-145.10;35.26
56334;BME280;42240;53.626;55.886;2024-03-23T08:24:12;75975.50;;;-145.10;35.02
56334;BME280;42240;53.626;55.886;2024-03-23T08:25:44;76013.06;;;-145.10;35.07
56334;BME280;42240;53.626;55.886;2024-03-23T08:27:16;75995.25;;;-145.10;34.17
56334;BME280;42240;53.626;55.886;2024-03-23T08:28:48;76102.03;;;-145.10;34.32
56334;BME280;42240;53.626;55.886;2024-03-23T08:30:24;76198.91;;;-145.10;34.55
56334;BME280;42240;53.626;55.886;2024-03-23T08:31:56;76094.13;;;-145.10;34.41
56334;BME280;42240;53.626;55.886;2024-03-23T08:33:29;76115.88;;;-145.10;34.09
56334;BME280;42240;53.626;55.886;2024-03-23T08:35:01;76098.06;;;-145.10;33.30
56334;BME280;42240;53.626;55.886;2024-03-23T08:36:34;76198.91;;;-145.10;33.62
56334;BME280;42240;53.626;55.886;2024-03-23T08:38:06;76125.75;;;-145.10;33.88
56334;BME280;42240;53.626;55.886;2024-03-23T08:39:38;76145.53;;;-145.10;34.08
56334;BME280;42240;53.626;55.886;2024-03-23T08:41:10;76109.94;;;-145.10;33.34
56334;BME280;42240;53.626;55.886;2024-03-23T08:42:42;76019.00;;;-145.10;33.94
56334;BME280;42240;53.626;55.886;2024-03-23T08:44:15;76048.66;;;-145.10;33.73
56334;BME280;42240;53.626;55.886;2024-03-23T08:45:46;76072.38;;;-145.10;33.05
56334;BME280;42240;53.626;55.886;2024-03-23T08:47:18;76098.06;;;-145.10;33.24
56334;BME280;42240;53.626;55.886;2024-03-23T08:48:50;76003.16;;;-145.10;33.68
56334;BME280;42240;53.626;55.886;2024-03-23T08:50:23;75991.31;;;-145.10;32.97
56334;BME280;42240;53.626;55.886;2024-03-23T08:51:55;75987.34;;;-145.10;33.19